Time;durP1;ratioP1;P1;durP2;ratioP2;P2;SDS_P1;SDS_P2;PMS_P1;PMS_P2;Temp;Humidity;BMP_temperature;BMP_pressure;BME280_temperature;BME280_humidity;BME280_pressure;Samples;Min_cycle;Max_cycle;Signal;HPM_P1;HPM_P2
2023/08/06 00:00:23;;;;;;;6.75;4.43;;;;;;;25.06;58.90;97984.69;6256693;22;20007;-89
2023/08/06 00:02:48;;;;;;;10.23;4.95;;;;;;;25.26;58.91;98003.56;6257984;22;20053;-89
2023/08/06 00:05:17;;;;;;;8.02;4.50;;;;;;;25.37;59.08;98015.28;6231980;22;20420;-89
2023/08/06 00:07:44;;;;;;;7.72;4.68;;;;;;;25.29;58.83;97998.00;6234967;22;19995;-90
2023/08/06 00:10:10;;;;;;;10.50;5.30;;;;;;;25.17;58.96;97990.97;6233665;22;19999;-89
2023/08/06 00:12:38;;;;;;;9.63;4.78;;;;;;;25.37;58.64;98015.28;6232729;22;19999;-89
2023/08/06 00:15:04;;;;;;;10.82;5.15;;;;;;;25.38;58.75;98009.38;6233294;22;20212;-89
2023/08/06 00:17:29;;;;;;;8.20;4.38;;;;;;;25.41;58.62;98002.28;6233570;22;20006;-92
2023/08/06 00:19:55;;;;;;;7.00;4.88;;;;;;;25.42;59.03;98014.84;6259386;22;20010;-94
2023/08/06 00:22:20;;;;;;;7.50;4.82;;;;;;;25.41;58.60;98013.31;6236207;22;20084;-96
2023/08/06 00:24:46;;;;;;;7.55;5.40;;;;;;;25.54;59.15;98022.69;6233115;22;20006;-96
2023/08/06 00:27:11;;;;;;;7.93;5.07;;;;;;;25.55;58.36;98026.25;6259494;22;20418;-95
2023/08/06 00:29:37;;;;;;;7.30;5.50;;;;;;;25.61;58.61;98028.16;6233797;22;20389;-93
2023/08/06 00:32:02;;;;;;;7.30;4.50;;;;;;;25.48;58.42;98040.03;6259235;22;20069;-95
2023/08/06 00:34:28;;;;;;;7.10;3.00;;;;;;;25.20;56.53;98023.22;6234381;22;19999;-96
2023/08/06 00:36:54;;;;;;;5.28;2.38;;;;;;;25.03;55.10;98040.59;6238886;22;20003;-96
2023/08/06 00:39:19;;;;;;;9.02;2.38;;;;;;;24.84;54.71;98038.25;6270483;22;20006;-96
2023/08/06 00:41:45;;;;;;;3.85;2.30;;;;;;;24.67;55.44;98039.88;6242825;22;19982;-96
2023/08/06 00:44:11;;;;;;;2.58;1.70;;;;;;;24.41;55.40;98044.59;6240882;22;20004;-96
2023/08/06 00:46:36;;;;;;;4.68;1.80;;;;;;;24.40;55.41;98057.56;6241846;22;20014;-96
2023/08/06 00:49:02;;;;;;;3.00;1.60;;;;;;;24.48;55.10;98085.06;6237689;22;20452;-96
2023/08/06 00:51:27;;;;;;;2.53;1.45;;;;;;;24.34;55.59;98080.34;6238966;22;20003;-96
2023/08/06 00:53:53;;;;;;;2.45;1.58;;;;;;;24.20;55.70;98083.88;6263646;22;20003;-96
2023/08/06 00:56:19;;;;;;;5.10;1.60;;;;;;;24.13;55.68;98078.34;6263393;22;20019;-96
2023/08/06 00:58:44;;;;;;;2.45;1.40;;;;;;;23.86;55.94;98075.16;6264968;22;20011;-96
2023/08/06 01:01:10;;;;;;;4.03;1.48;;;;;;;23.93;56.36;98095.22;6236712;22;20091;-96
2023/08/06 01:03:35;;;;;;;2.20;1.63;;;;;;;23.78;56.66;98083.41;6239828;22;19999;-96
2023/08/06 01:06:01;;;;;;;2.35;1.50;;;;;;;23.74;56.89;98096.31;6265468;22;19993;-96
2023/08/06 01:08:45;;;;;;;3.20;1.70;;;;;;;23.76;56.51;98105.00;6237351;22;19995;-96
2023/08/06 01:11:44;;;;;;;3.20;1.55;;;;;;;23.56;56.96;98093.50;6290054;22;20074;-96
2023/08/06 01:14:22;;;;;;;4.72;1.50;;;;;;;23.47;57.20;98084.03;6262658;22;20015;-96
2023/08/06 01:16:49;;;;;;;1.92;1.38;;;;;;;23.53;56.66;98102.53;6240141;22;20065;-96
2023/08/06 01:19:18;;;;;;;2.03;1.60;;;;;;;23.49;56.24;98071.50;6238077;22;20323;-96
2023/08/06 01:21:43;;;;;;;2.95;1.45;;;;;;;23.52;56.68;98073.47;6237730;22;20078;-96
2023/08/06 01:24:09;;;;;;;2.22;1.60;;;;;;;23.47;56.82;98068.34;6267586;22;19995;-96
2023/08/06 01:26:48;;;;;;;3.58;1.92;;;;;;;23.49;55.92;98062.44;6241277;22;20324;-96
2023/08/06 01:29:25;;;;;;;3.97;1.40;;;;;;;23.42;56.18;98081.66;6236827;22;20071;-96
2023/08/06 01:31:51;;;;;;;3.92;1.70;;;;;;;23.23;56.05;98049.81;6262052;22;20055;-94
2023/08/06 01:34:18;;;;;;;1.90;1.35;;;;;;;23.31;56.22;98059.66;6235582;22;20006;-95
2023/08/06 01:36:43;;;;;;;2.55;1.60;;;;;;;23.21;56.03;98055.69;6234920;22;19999;-95
2023/08/06 01:39:09;;;;;;;2.42;1.60;;;;;;;23.32;55.98;98063.97;6236618;22;20003;-96
2023/08/06 01:41:34;;;;;;;2.47;1.50;;;;;;;23.26;56.17;98060.00;6236438;22;20349;-96
2023/08/06 01:44:00;;;;;;;4.70;1.38;;;;;;;23.17;56.30;98057.63;6236781;22;20007;-96
2023/08/06 01:46:26;;;;;;;4.55;1.50;;;;;;;23.19;57.19;98066.25;6238251;22;20466;-95
2023/08/06 01:48:51;;;;;;;2.83;1.70;;;;;;;23.05;57.49;98044.22;6235943;22;19995;-96
2023/08/06 01:51:17;;;;;;;2.78;1.40;;;;;;;22.95;57.56;98062.16;6235795;22;20010;-96
2023/08/06 01:53:42;;;;;;;6.95;1.60;;;;;;;23.06;57.09;98045.81;6238356;22;20314;-96
2023/08/06 01:56:08;;;;;;;2.00;1.40;;;;;;;23.07;56.98;98045.41;6237248;22;20003;-96
2023/08/06 01:58:33;;;;;;;3.42;1.88;;;;;;;23.06;57.46;98046.59;6233762;22;20446;-87
2023/08/06 02:00:59;;;;;;;2.70;1.48;;;;;;;23.06;57.34;98063.06;6257517;22;19999;-87
2023/08/06 02:03:24;;;;;;;2.35;1.52;;;;;;;23.04;57.79;98056.38;6232341;22;20076;-86
2023/08/06 02:05:49;;;;;;;3.33;1.50;;;;;;;23.02;57.64;98056.75;6231427;22;19998;-86
2023/08/06 02:08:15;;;;;;;2.20;1.60;;;;;;;22.77;58.19;98045.59;6256866;22;20346;-87
2023/08/06 02:10:41;;;;;;;4.00;1.90;;;;;;;22.94;58.53;98055.13;6236157;22;19999;-96
2023/08/06 02:13:07;;;;;;;3.05;1.67;;;;;;;22.87;58.03;98047.63;6261673;22;19999;-95
2023/08/06 02:15:32;;;;;;;4.45;1.60;;;;;;;22.92;58.33;98051.97;6234785;22;20008;-96
2023/08/06 02:17:58;;;;;;;3.85;1.60;;;;;;;22.97;57.92;98059.81;6234886;22;20003;-96
2023/08/06 02:20:23;;;;;;;4.65;1.48;;;;;;;22.73;57.33;98039.31;6234619;22;20430;-87
2023/08/06 02:22:49;;;;;;;2.65;1.52;;;;;;;22.66;56.63;98022.78;6231259;22;20006;-87
2023/08/06 02:25:14;;;;;;;4.85;1.40;;;;;;;22.73;56.48;98042.06;6231637;22;19991;-87
2023/08/06 02:27:40;;;;;;;2.13;1.40;;;;;;;22.85;56.12;98049.16;6230261;22;20003;-87
2023/08/06 02:30:06;;;;;;;2.40;1.40;;;;;;;22.81;56.64;98054.66;6231424;22;20421;-86
2023/08/06 02:32:32;;;;;;;2.40;1.42;;;;;;;22.80;55.97;98044.81;6256740;22;20002;-86
2023/08/06 02:34:58;;;;;;;1.83;1.33;;;;;;;22.78;55.66;98047.16;6256999;22;20408;-87
2023/08/06 02:37:23;;;;;;;2.97;1.50;;;;;;;22.71;55.95;98050.66;6256800;22;19999;-87
2023/08/06 02:39:49;;;;;;;2.53;1.33;;;;;;;22.77;55.83;98051.88;6231505;22;20007;-87
2023/08/06 02:42:14;;;;;;;2.78;1.50;;;;;;;22.67;55.71;98044.34;6230540;22;20029;-87
2023/08/06 02:44:40;;;;;;;2.45;1.40;;;;;;;22.54;55.71;98052.13;6230989;22;20033;-87
2023/08/06 02:47:06;;;;;;;3.25;1.23;;;;;;;22.70;55.71;98059.25;6230887;22;19999;-87
2023/08/06 02:49:31;;;;;;;2.03;1.13;;;;;;;22.76;55.29;98055.78;6255875;22;20334;-85
2023/08/06 02:51:57;;;;;;;3.55;1.50;;;;;;;22.64;55.34;98045.13;6254651;22;20003;-85
2023/08/06 02:54:22;;;;;;;1.73;1.10;;;;;;;22.75;55.15;98062.44;6230132;22;20078;-85
2023/08/06 02:56:48;;;;;;;2.95;1.40;;;;;;;22.72;55.64;98067.91;6230617;22;20003;-85
2023/08/06 02:59:13;;;;;;;1.80;1.10;;;;;;;22.76;55.45;98055.00;6230269;22;20014;-85
2023/08/06 03:01:39;;;;;;;2.25;1.30;;;;;;;22.75;54.74;98070.69;6229972;22;20000;-85
2023/08/06 03:04:05;;;;;;;1.63;1.17;;;;;;;22.77;54.94;98067.56;6256095;22;19998;-85
2023/08/06 03:06:31;;;;;;;2.70;1.25;;;;;;;22.85;54.90;98069.19;6230326;22;20039;-85
2023/08/06 03:08:56;;;;;;;2.00;1.00;;;;;;;22.77;54.41;98062.06;6229961;22;20002;-85
2023/08/06 03:11:22;;;;;;;3.17;1.42;;;;;;;22.72;54.81;98048.69;6256010;22;19999;-85
2023/08/06 03:13:47;;;;;;;5.60;1.58;;;;;;;22.72;54.44;98063.22;6228120;22;20057;-85
2023/08/06 03:16:13;;;;;;;4.60;1.30;;;;;;;22.59;55.09;98050.97;6198891;22;20090;-85
2023/08/06 03:18:38;;;;;;;2.20;1.30;;;;;;;22.60;54.61;98045.09;6200571;22;20024;-86
2023/08/06 03:21:04;;;;;;;2.10;1.20;;;;;;;22.63;54.79;98046.28;6225901;22;20000;-85
2023/08/06 03:23:29;;;;;;;4.95;1.40;;;;;;;22.65;54.83;98040.44;6225216;22;20011;-85
2023/08/06 03:25:55;;;;;;;2.55;1.60;;;;;;;22.60;56.05;98041.59;6199727;22;20003;-85
2023/08/06 03:28:22;;;;;;;2.03;1.40;;;;;;;22.54;56.34;98032.91;6250416;22;20000;-86
2023/08/06 03:30:47;;;;;;;11.52;2.20;;;;;;;22.47;56.98;98026.56;6200844;22;19995;-85
2023/08/06 03:33:13;;;;;;;2.00;1.10;;;;;;;22.43;56.11;98034.78;6224921;22;20000;-85
2023/08/06 03:35:38;;;;;;;2.70;1.52;;;;;;;22.48;57.65;98041.88;6225824;22;20000;-85
2023/08/06 03:38:03;;;;;;;2.70;1.67;;;;;;;22.38;57.62;98026.91;6224964;22;20014;-85
2023/08/06 03:40:29;;;;;;;2.47;1.30;;;;;;;22.40;57.43;98025.34;6251099;22;19996;-85
2023/08/06 03:42:54;;;;;;;2.35;1.40;;;;;;;22.39;57.78;98036.69;6251583;22;20003;-84
2023/08/06 03:45:20;;;;;;;1.90;1.20;;;;;;;22.40;57.15;98038.28;6202495;22;20034;-85
2023/08/06 03:47:46;;;;;;;2.10;1.50;;;;;;;22.38;57.96;98018.69;6201667;22;19999;-84
2023/08/06 03:50:11;;;;;;;4.45;1.77;;;;;;;22.42;58.06;98026.94;6226909;22;19999;-86
2023/08/06 03:52:36;;;;;;;3.00;1.70;;;;;;;22.40;58.50;98019.88;6201594;22;19995;-84
2023/08/06 03:55:02;;;;;;;2.35;1.60;;;;;;;22.30;58.51;98023.31;6227000;22;20000;-85
2023/08/06 03:57:28;;;;;;;2.92;1.50;;;;;;;22.17;58.49;98013.78;6226953;22;19996;-86
2023/08/06 03:59:54;;;;;;;2.85;1.40;;;;;;;22.32;58.56;98031.94;6202533;22;20011;-84
2023/08/06 04:02:19;;;;;;;4.60;1.50;;;;;;;22.29;58.55;98040.16;6251170;22;20053;-85
2023/08/06 04:04:45;;;;;;;3.90;1.30;;;;;;;22.17;57.88;98025.53;6226317;22;19999;-86
2023/08/06 04:07:10;;;;;;;2.17;1.45;;;;;;;22.30;57.79;98039.00;6200573;22;19995;-84
2023/08/06 04:09:52;;;;;;;2.53;1.48;;;;;;;22.28;58.35;98022.91;6226909;22;20002;-86
2023/08/06 04:12:17;;;;;;;4.72;1.70;;;;;;;22.33;58.38;98021.75;6226917;22;20007;-85
2023/08/06 04:14:42;;;;;;;5.72;1.90;;;;;;;22.45;57.40;98040.66;6200828;22;20016;-83
2023/08/06 04:17:08;;;;;;;1.58;1.30;;;;;;;22.50;58.29;98031.31;6225791;22;19999;-85
2023/08/06 04:19:33;;;;;;;3.30;1.55;;;;;;;22.45;59.41;98026.94;6226575;22;20000;-85
2023/08/06 04:21:59;;;;;;;4.35;1.55;;;;;;;22.58;59.39;98046.66;6226366;22;19995;-85
2023/08/06 04:24:24;;;;;;;3.65;1.63;;;;;;;22.52;59.33;98035.25;6227497;22;20338;-85
2023/08/06 04:26:50;;;;;;;3.03;1.40;;;;;;;22.52;58.63;98037.22;6226080;22;20010;-84
2023/08/06 04:29:15;;;;;;;7.60;1.50;;;;;;;22.58;58.69;98039.22;6227224;22;19996;-85
2023/08/06 04:31:41;;;;;;;3.25;1.77;;;;;;;22.65;59.06;98040.44;6226284;22;20419;-85
2023/08/06 04:34:07;;;;;;;3.65;1.52;;;;;;;22.77;57.71;98045.59;6251685;22;20003;-85
2023/08/06 04:36:33;;;;;;;3.85;1.67;;;;;;;22.80;58.10;98039.34;6227024;22;19999;-85
2023/08/06 04:38:58;;;;;;;2.80;1.42;;;;;;;22.85;57.80;98043.66;6225364;22;20007;-85
2023/08/06 04:41:24;;;;;;;7.20;1.30;;;;;;;22.99;57.03;98047.31;6201448;22;20065;-85
2023/08/06 04:43:49;;;;;;;2.15;1.27;;;;;;;22.92;57.33;98035.50;6200996;22;19995;-85
2023/08/06 04:46:15;;;;;;;3.28;1.40;;;;;;;23.03;56.39;98044.59;6279258;22;19992;-85
2023/08/06 04:48:40;;;;;;;3.70;1.30;;;;;;;23.08;56.03;98036.00;6226061;22;20434;-85
2023/08/06 04:51:06;;;;;;;2.50;1.25;;;;;;;23.20;55.59;98035.69;6225666;22;19995;-85
2023/08/06 04:53:31;;;;;;;4.07;1.48;;;;;;;23.28;55.08;98044.72;6226474;22;20003;-85
2023/08/06 04:55:57;;;;;;;4.13;1.20;;;;;;;23.34;52.76;98037.69;6225872;22;19984;-86
2023/08/06 04:58:22;;;;;;;3.42;1.17;;;;;;;23.32;52.69;98022.75;6226450;22;20011;-86
2023/08/06 05:00:49;;;;;;;2.88;1.98;;;;;;;23.56;52.07;98035.00;6227040;22;20000;-86
2023/08/06 05:03:15;;;;;;;2.22;1.35;;;;;;;23.42;51.67;98013.78;6224390;22;20453;-86
2023/08/06 05:05:41;;;;;;;4.18;1.25;;;;;;;23.30;52.00;98005.88;6226054;22;19991;-85
2023/08/06 05:08:15;;;;;;;2.13;1.20;;;;;;;23.51;51.92;98005.97;6226447;22;20006;-86
2023/08/06 05:10:43;;;;;;;3.85;1.30;;;;;;;23.50;51.88;98015.38;6226582;22;20000;-86
2023/08/06 05:13:11;;;;;;;2.65;1.20;;;;;;;23.53;51.65;98009.09;6201905;22;20030;-86
2023/08/06 05:15:36;;;;;;;3.40;1.27;;;;;;;23.61;51.39;98001.66;6205953;22;20015;-87
2023/08/06 05:18:02;;;;;;;1.90;1.00;;;;;;;23.73;51.13;98017.78;6232345;22;20007;-92
2023/08/06 05:20:27;;;;;;;1.73;1.00;;;;;;;23.60;51.24;98003.63;6233607;22;20037;-91
2023/08/06 05:22:53;;;;;;;2.38;1.10;;;;;;;23.80;50.82;98012.34;6233447;22;20404;-93
2023/08/06 05:25:20;;;;;;;2.55;0.80;;;;;;;23.79;50.89;97999.75;6259356;22;20060;-93
2023/08/06 05:27:45;;;;;;;2.10;1.02;;;;;;;23.85;50.52;97988.38;6231929;22;19999;-92
2023/08/06 05:30:11;;;;;;;3.15;1.25;;;;;;;24.03;50.59;98004.88;6258781;22;20323;-92
2023/08/06 05:32:36;;;;;;;1.38;0.95;;;;;;;24.03;50.40;98005.69;6233396;22;19999;-92
2023/08/06 05:35:02;;;;;;;1.60;1.02;;;;;;;24.10;49.87;98005.69;6233319;22;19999;-93
2023/08/06 05:37:28;;;;;;;2.25;1.20;;;;;;;24.19;50.22;98022.56;6233027;22;20413;-92
2023/08/06 05:39:53;;;;;;;2.28;1.05;;;;;;;24.36;50.51;98009.19;6234122;22;20011;-92
2023/08/06 05:42:19;;;;;;;2.35;1.23;;;;;;;24.40;49.78;97999.78;6232740;22;20007;-85
2023/08/06 05:44:44;;;;;;;3.20;1.20;;;;;;;24.46;50.24;97994.66;6231535;22;19999;-86
2023/08/06 05:47:10;;;;;;;1.50;0.88;;;;;;;24.45;50.10;97984.06;6257162;22;20432;-85
2023/08/06 05:49:35;;;;;;;1.90;1.00;;;;;;;24.64;49.48;97999.38;6255065;22;20331;-85
2023/08/06 05:52:02;;;;;;;3.67;1.02;;;;;;;24.94;48.34;97991.41;6231008;22;19999;-86
2023/08/06 05:54:27;;;;;;;1.40;1.00;;;;;;;25.01;48.74;97985.91;6256971;22;20003;-86
2023/08/06 05:56:53;;;;;;;1.63;1.08;;;;;;;25.10;48.15;97982.72;6256363;22;20010;-86
2023/08/06 05:59:18;;;;;;;2.47;0.98;;;;;;;25.18;47.79;97992.50;6231214;22;20434;-85
2023/08/06 06:01:44;;;;;;;1.80;0.93;;;;;;;24.98;48.21;97983.16;6256130;22;19999;-85
2023/08/06 06:04:09;;;;;;;2.95;1.10;;;;;;;25.06;48.98;97987.44;6231091;22;19999;-86
2023/08/06 06:06:35;;;;;;;1.85;0.90;;;;;;;25.23;47.84;97976.78;6281308;22;19995;-86
2023/08/06 06:09:00;;;;;;;1.52;1.05;;;;;;;25.31;47.80;97978.31;6256410;22;19999;-86
2023/08/06 06:11:26;;;;;;;2.35;0.95;;;;;;;25.26;47.84;97979.53;6256998;22;20092;-87
2023/08/06 06:13:52;;;;;;;12.77;4.53;;;;;;;25.28;47.74;97981.91;6256662;22;20052;-89
2023/08/06 06:16:17;;;;;;;1.48;0.90;;;;;;;25.39;46.85;97964.09;6231942;22;19999;-89
2023/08/06 06:18:43;;;;;;;1.55;1.00;;;;;;;25.40;47.27;97959.38;6256697;22;19999;-86
2023/08/06 06:21:09;;;;;;;6.40;3.28;;;;;;;25.58;47.53;97965.56;6230566;22;20000;-84
2023/08/06 06:23:35;;;;;;;2.22;1.23;;;;;;;25.65;46.87;97963.94;6231405;22;20041;-85
2023/08/06 06:26:00;;;;;;;4.05;2.85;;;;;;;25.78;47.16;97967.81;6230223;22;20094;-85
2023/08/06 06:28:26;;;;;;;1.85;1.15;;;;;;;25.95;45.81;97961.38;6231659;22;19999;-84
2023/08/06 06:30:52;;;;;;;1.92;1.00;;;;;;;25.78;45.79;97952.03;6230466;22;20449;-85
2023/08/06 06:33:17;;;;;;;1.80;0.93;;;;;;;25.60;46.74;97954.13;6255919;22;20006;-85
2023/08/06 06:35:43;;;;;;;1.85;1.00;;;;;;;25.66;46.49;97957.25;6230823;22;20010;-86
2023/08/06 06:38:08;;;;;;;1.98;1.10;;;;;;;25.91;46.21;97962.63;6229973;22;20019;-85
2023/08/06 06:40:34;;;;;;;1.35;1.00;;;;;;;25.91;46.11;97966.16;6230759;22;20002;-86
2023/08/06 06:42:59;;;;;;;1.48;0.90;;;;;;;25.89;46.46;97963.00;6256854;22;20002;-85
2023/08/06 06:45:24;;;;;;;2.05;1.10;;;;;;;25.94;45.60;97965.34;6232512;22;19975;-85
2023/08/06 06:47:50;;;;;;;2.08;1.20;;;;;;;26.15;45.54;97982.94;6230388;22;20003;-85
2023/08/06 06:50:15;;;;;;;1.42;1.00;;;;;;;26.04;45.50;97982.22;6255139;22;20495;-85
2023/08/06 06:52:41;;;;;;;1.65;0.85;;;;;;;25.69;45.59;97981.25;6257067;22;20418;-86
2023/08/06 06:55:07;;;;;;;3.10;1.17;;;;;;;25.77;46.38;97991.84;6256307;22;20002;-85
2023/08/06 06:57:32;;;;;;;1.50;0.85;;;;;;;25.74;46.06;97986.34;6256171;22;19999;-85
2023/08/06 06:59:58;;;;;;;2.85;1.30;;;;;;;25.72;46.63;97985.97;6281414;22;20015;-85
2023/08/06 07:02:23;;;;;;;2.90;1.23;;;;;;;25.82;46.61;98001.66;6254859;22;20064;-85
2023/08/06 07:04:50;;;;;;;3.28;1.23;;;;;;;25.87;45.99;98003.19;6231008;22;19995;-85
2023/08/06 07:07:15;;;;;;;3.38;1.17;;;;;;;25.88;45.84;98004.75;6231397;22;20019;-85
2023/08/06 07:09:41;;;;;;;2.58;0.93;;;;;;;25.97;45.72;98002.38;6255472;22;20006;-85
2023/08/06 07:12:07;;;;;;;2.00;1.20;;;;;;;25.90;46.51;98003.22;6256808;22;20414;-85
2023/08/06 07:14:32;;;;;;;2.15;1.10;;;;;;;25.98;46.57;97993.69;6226254;22;20016;-86
2023/08/06 07:16:58;;;;;;;4.78;2.40;;;;;;;26.04;46.62;98007.03;6252930;22;20434;-86
2023/08/06 07:19:24;;;;;;;5.05;1.35;;;;;;;26.03;47.06;98009.00;6251810;22;20006;-85
2023/08/06 07:21:49;;;;;;;1.98;1.00;;;;;;;26.11;47.03;98016.06;6251876;22;19999;-85
2023/08/06 07:24:14;;;;;;;2.30;1.10;;;;;;;26.17;47.31;98019.16;6227650;22;19999;-85
2023/08/06 07:26:40;;;;;;;3.35;1.17;;;;;;;26.30;46.89;98019.47;6252461;22;19995;-87
2023/08/06 07:29:05;;;;;;;2.10;1.20;;;;;;;26.31;46.94;98032.81;6227383;22;19999;-85
2023/08/06 07:31:31;;;;;;;1.75;1.17;;;;;;;26.19;47.74;98031.34;6201876;22;20029;-85
2023/08/06 07:33:57;;;;;;;9.13;4.32;;;;;;;26.17;47.99;98033.75;6202070;22;20000;-85
2023/08/06 07:36:22;;;;;;;3.05;1.20;;;;;;;26.26;47.63;98030.50;6226814;22;20000;-85
2023/08/06 07:38:51;;;;;;;1.98;1.10;;;;;;;26.17;47.50;98044.78;6225721;22;19999;-85
2023/08/06 07:41:19;;;;;;;4.35;1.40;;;;;;;26.01;48.29;98045.28;6228651;22;20334;-85
2023/08/06 07:43:45;;;;;;;2.50;1.35;;;;;;;26.01;48.26;98030.72;6228528;22;20002;-85
2023/08/06 07:46:11;;;;;;;2.42;1.30;;;;;;;25.88;49.07;98044.16;6252545;22;19992;-85
2023/08/06 07:48:37;;;;;;;2.10;1.50;;;;;;;25.84;49.11;98062.69;6227361;22;20374;-85
2023/08/06 07:51:02;;;;;;;3.53;1.70;;;;;;;25.85;48.61;98080.81;6252494;22;19996;-86
2023/08/06 07:53:29;;;;;;;3.40;1.63;;;;;;;25.89;48.81;98075.28;6228517;22;20046;-85
2023/08/06 07:55:55;;;;;;;2.47;1.52;;;;;;;25.86;49.26;98085.16;6252874;22;20066;-86
2023/08/06 07:58:20;;;;;;;2.20;1.48;;;;;;;25.92;49.47;98086.31;6227271;22;20011;-86
2023/08/06 08:00:46;;;;;;;4.15;2.05;;;;;;;25.90;49.81;98074.09;6226947;22;20006;-85
2023/08/06 08:03:13;;;;;;;3.33;1.50;;;;;;;26.11;48.73;98084.25;6226908;22;20480;-84
2023/08/06 08:05:39;;;;;;;3.15;1.60;;;;;;;25.87;49.31;98063.88;6227827;22;19996;-86
2023/08/06 08:08:04;;;;;;;3.72;1.40;;;;;;;25.97;49.23;98066.59;6253147;22;20332;-85
2023/08/06 08:10:31;;;;;;;2.53;1.38;;;;;;;25.93;49.65;98054.78;6252409;22;20057;-85
2023/08/06 08:12:56;;;;;;;4.75;1.98;;;;;;;25.86;50.82;98035.50;6252738;22;20007;-85
2023/08/06 08:15:22;;;;;;;5.13;1.58;;;;;;;25.78;50.66;98037.50;6226101;22;20015;-85
2023/08/06 08:17:47;;;;;;;2.78;1.73;;;;;;;25.94;50.46;98055.56;6278103;22;20049;-86
2023/08/06 08:20:13;;;;;;;4.07;2.10;;;;;;;25.65;51.29;98058.47;6226393;22;20000;-87
2023/08/06 08:22:39;;;;;;;2.85;1.90;;;;;;;25.67;51.15;98049.78;6252935;22;20418;-84
2023/08/06 08:25:05;;;;;;;3.38;2.20;;;;;;;25.81;50.82;98046.94;6226618;22;20085;-84
2023/08/06 08:27:31;;;;;;;3.63;1.83;;;;;;;25.60;52.22;98047.84;6225760;22;20091;-86
2023/08/06 08:29:57;;;;;;;2.85;1.65;;;;;;;25.48;52.81;98043.56;6277541;22;20082;-86
2023/08/06 08:32:22;;;;;;;5.65;1.77;;;;;;;25.34;55.16;97980.28;6225884;22;19996;-86
2023/08/06 08:34:48;;;;;;;5.82;2.28;;;;;;;25.23;57.63;97894.91;6252598;22;20454;-86
2023/08/06 08:37:13;;;;;;;3.03;1.60;;;;;;;25.21;55.62;97869.75;6226301;22;19999;-86
2023/08/06 08:39:39;;;;;;;2.63;1.70;;;;;;;25.11;55.75;97920.13;6226550;22;20007;-86
2023/08/06 08:42:06;;;;;;;4.22;1.98;;;;;;;25.09;56.17;97915.06;6251677;22;20422;-85
2023/08/06 08:44:33;;;;;;;2.35;1.92;;;;;;;25.10;57.06;97919.34;6251487;22;20006;-85
2023/08/06 08:46:59;;;;;;;4.18;2.20;;;;;;;24.79;60.74;97982.41;6252075;22;19989;-86
2023/08/06 08:49:24;;;;;;;3.97;2.30;;;;;;;24.80;60.56;98033.56;6226562;22;20102;-85
2023/08/06 08:51:50;;;;;;;3.42;2.30;;;;;;;24.83;58.57;98053.22;6251373;22;20026;-84
2023/08/06 08:54:15;;;;;;;3.35;2.17;;;;;;;24.58;59.34;98052.06;6251190;22;20015;-85
2023/08/06 08:56:41;;;;;;;3.90;2.13;;;;;;;24.43;60.34;98027.69;6227082;22;20002;-86
2023/08/06 08:59:06;;;;;;;2.85;1.90;;;;;;;24.34;60.05;98012.38;6251791;22;20057;-85
2023/08/06 09:01:32;;;;;;;5.30;2.60;;;;;;;24.08;63.82;98016.28;6226252;22;20003;-89
2023/08/06 09:03:57;;;;;;;3.92;2.60;;;;;;;23.96;64.03;98022.16;6227347;22;20312;-86
2023/08/06 09:06:25;;;;;;;4.75;2.42;;;;;;;23.64;65.03;98013.81;6226658;22;19996;-85
2023/08/06 09:09:13;;;;;;;5.43;2.30;;;;;;;23.75;67.75;97985.19;6252980;22;20010;-86
2023/08/06 09:11:49;;;;;;;4.70;2.20;;;;;;;23.63;65.49;97947.09;6233125;22;19999;-86
2023/08/06 09:14:14;;;;;;;3.28;2.63;;;;;;;23.56;66.45;97960.84;6226410;22;20016;-87
2023/08/06 09:16:40;;;;;;;3.45;2.80;;;;;;;23.60;65.52;97970.66;6200368;22;20324;-84
2023/08/06 09:19:17;;;;;;;4.18;2.50;;;;;;;23.66;65.70;97994.97;6252058;22;20003;-86
2023/08/06 09:21:43;;;;;;;4.00;2.70;;;;;;;23.84;67.77;98031.56;6253254;22;20327;-85
2023/08/06 09:24:12;;;;;;;7.50;4.70;;;;;;;24.03;68.38;98013.13;6227747;22;20000;-85
2023/08/06 09:26:39;;;;;;;7.00;2.72;;;;;;;24.29;65.56;98015.50;6226186;22;20051;-85
2023/08/06 09:29:11;;;;;;;3.97;2.65;;;;;;;24.62;62.95;98013.53;6227163;22;20010;-86
2023/08/06 09:31:40;;;;;;;4.22;2.50;;;;;;;24.60;61.13;98015.91;6227658;22;19996;-84
2023/08/06 09:34:25;;;;;;;3.28;2.25;;;;;;;24.85;60.71;98039.84;6250951;22;19996;-85
2023/08/06 09:36:51;;;;;;;4.68;2.40;;;;;;;24.99;59.50;98048.84;6229125;22;20434;-85
2023/08/06 09:39:27;;;;;;;4.13;2.20;;;;;;;25.13;59.41;98052.72;6225734;22;20003;-85
2023/08/06 09:41:57;;;;;;;3.63;2.55;;;;;;;25.08;59.38;98059.44;6227624;22;20003;-85
2023/08/06 09:44:25;;;;;;;2.63;2.22;;;;;;;24.72;60.01;98056.78;6225997;22;20000;-85
2023/08/06 09:47:03;;;;;;;3.53;2.25;;;;;;;24.61;60.50;98075.25;6226110;22;20011;-87
2023/08/06 09:49:45;;;;;;;5.03;2.47;;;;;;;24.57;61.10;98086.28;6228314;22;20078;-86
2023/08/06 09:52:13;;;;;;;4.15;2.13;;;;;;;24.78;60.22;98081.94;6252060;22;20003;-85
2023/08/06 09:54:39;;;;;;;6.22;2.10;;;;;;;24.64;60.28;98060.72;6226668;22;20006;-85
2023/08/06 09:57:05;;;;;;;4.95;3.03;;;;;;;24.57;61.08;98075.28;6226023;22;20087;-86
2023/08/06 09:59:30;;;;;;;3.75;2.20;;;;;;;24.61;60.39;98055.97;6225494;22;20012;-86
2023/08/06 10:01:56;;;;;;;3.38;2.17;;;;;;;24.49;60.87;98075.66;6227923;22;20341;-86
2023/08/06 10:04:21;;;;;;;2.85;2.13;;;;;;;24.45;60.79;98041.84;6251527;22;19995;-86
2023/08/06 10:06:50;;;;;;;2.90;2.38;;;;;;;24.57;60.37;98052.44;6225689;22;20002;-86
2023/08/06 10:09:15;;;;;;;3.90;2.45;;;;;;;24.36;60.46;98053.22;6252329;22;19996;-86
2023/08/06 10:11:42;;;;;;;2.78;1.92;;;;;;;24.61;59.63;98050.47;6225520;22;20002;-86
2023/08/06 10:14:30;;;;;;;2.58;1.90;;;;;;;24.39;58.92;98038.69;6252570;22;20016;-86
2023/08/06 10:16:56;;;;;;;3.15;2.08;;;;;;;24.44;58.64;98041.03;6225117;22;20003;-87
2023/08/06 10:19:22;;;;;;;3.08;2.03;;;;;;;24.25;59.48;98046.94;6250312;22;20423;-85
2023/08/06 10:22:17;;;;;;;2.55;2.10;;;;;;;24.08;59.83;98054.00;6227061;22;19999;-85
2023/08/06 10:24:53;;;;;;;4.13;2.10;;;;;;;24.08;59.91;98063.03;6225518;22;20004;-85
2023/08/06 10:27:41;;;;;;;4.28;2.20;;;;;;;23.94;60.76;98090.50;6251076;22;20019;-85
2023/08/06 10:30:28;;;;;;;3.55;2.13;;;;;;;23.78;61.06;98099.09;6250496;22;20061;-85
2023/08/06 10:32:56;;;;;;;3.92;2.30;;;;;;;23.73;60.86;98094.72;6276291;22;20011;-85
2023/08/06 10:35:34;;;;;;;4.63;2.20;;;;;;;23.72;61.25;98108.84;6251384;22;20450;-85
2023/08/06 10:38:10;;;;;;;3.83;2.08;;;;;;;23.48;61.68;98105.63;6276389;22;20102;-85
2023/08/06 10:40:36;;;;;;;2.70;2.38;;;;;;;23.31;62.29;98120.88;6227027;22;20489;-86
2023/08/06 10:43:02;;;;;;;4.47;2.58;;;;;;;23.35;62.44;98116.16;6225667;22;20003;-85
2023/08/06 10:45:31;;;;;;;2.40;1.88;;;;;;;23.35;62.72;98118.91;6226576;22;20410;-86
2023/08/06 10:47:59;;;;;;;2.67;2.00;;;;;;;23.29;62.95;98090.25;6201753;22;20374;-87
2023/08/06 10:50:26;;;;;;;3.22;2.30;;;;;;;23.19;62.96;98077.25;6226745;22;20008;-86
2023/08/06 10:52:51;;;;;;;3.35;2.28;;;;;;;23.21;62.79;98096.88;6251254;22;19995;-84
2023/08/06 10:55:24;;;;;;;5.10;2.20;;;;;;;23.21;63.08;98113.34;6225391;22;20084;-86
2023/08/06 10:57:50;;;;;;;2.97;2.03;;;;;;;23.19;62.91;98118.44;6225189;22;20000;-86
2023/08/06 11:00:16;;;;;;;2.28;1.98;;;;;;;23.06;63.09;98123.47;6225579;22;20071;-87
2023/08/06 11:02:45;;;;;;;3.05;2.08;;;;;;;23.09;62.86;98149.38;6225815;22;20007;-87
2023/08/06 11:05:13;;;;;;;4.78;2.20;;;;;;;22.97;64.04;98155.91;6227172;22;20080;-86
2023/08/06 11:07:39;;;;;;;16.42;4.05;;;;;;;22.85;68.35;98156.22;6224994;22;19999;-87
2023/08/06 11:10:09;;;;;;;22.67;6.00;;;;;;;22.74;73.40;98165.16;6250217;22;20030;-87
2023/08/06 11:12:34;;;;;;;20.40;6.05;;;;;;;22.64;77.55;98178.78;6227058;22;20000;-87
2023/08/06 11:15:03;;;;;;;10.73;4.25;;;;;;;22.19;76.16;98175.97;6251257;22;20473;-86
2023/08/06 11:17:29;;;;;;;9.88;3.75;;;;;;;22.03;76.32;98170.69;6251976;22;20014;-86
2023/08/06 11:19:54;;;;;;;8.27;3.97;;;;;;;21.84;78.19;98159.91;6251400;22;19996;-86
2023/08/06 11:22:23;;;;;;;6.05;3.00;;;;;;;21.69;78.43;98143.28;6251733;22;20067;-87
2023/08/06 11:24:49;;;;;;;13.82;3.63;;;;;;;21.29;80.39;98089.94;6251459;22;20002;-86
2023/08/06 11:27:15;;;;;;;6.18;3.10;;;;;;;21.32;79.25;98077.47;6200792;22;20000;-86
2023/08/06 11:29:43;;;;;;;7.32;3.33;;;;;;;21.18;79.38;98081.56;6226400;22;20015;-86
2023/08/06 11:32:09;;;;;;;4.57;2.80;;;;;;;21.08;80.75;98106.06;6200762;22;20011;-86